Time;durP1;ratioP1;P1;durP2;ratioP2;P2;SDS_P1;SDS_P2;PMS_P1;PMS_P2;Temp;Humidity;BMP_temperature;BMP_pressure;BME280_temperature;BME280_humidity;BME280_pressure;Samples;Min_cycle;Max_cycle;Signal;HPM_P1;HPM_P2
2023/01/21 00:01:31;;;;;;;7.50;4.30;;;;;;;-1.47;100.00;96140.63;109137;1264;22553;-79
2023/01/21 00:04:02;;;;;;;7.10;4.50;;;;;;;-1.46;100.00;96141.29;109212;1270;25328;-80
2023/01/21 00:06:34;;;;;;;6.30;4.10;;;;;;;-1.46;100.00;96143.37;109096;1272;22587;-80
2023/01/21 00:09:06;;;;;;;5.90;3.90;;;;;;;-1.45;100.00;96139.23;109152;1272;22581;-80
2023/01/21 00:11:37;;;;;;;5.10;3.60;;;;;;;-1.44;100.00;96139.54;109088;1272;24143;-80
2023/01/21 00:14:08;;;;;;;5.90;4.10;;;;;;;-1.43;100.00;96142.57;109160;1272;22525;-80
2023/01/21 00:16:39;;;;;;;5.30;3.70;;;;;;;-1.43;100.00;96135.14;109110;1270;22578;-80
2023/01/21 00:19:10;;;;;;;6.60;4.10;;;;;;;-1.43;100.00;96142.93;109074;1270;24159;-79
2023/01/21 00:21:41;;;;;;;5.30;3.50;;;;;;;-1.42;100.00;96142.00;109049;1269;22587;-79
2023/01/21 00:24:12;;;;;;;6.50;4.10;;;;;;;-1.43;100.00;96143.80;109087;1266;22556;-79
2023/01/21 00:26:43;;;;;;;6.30;4.10;;;;;;;-1.43;100.00;96141.94;109085;1272;22524;-80
2023/01/21 00:29:15;;;;;;;6.30;4.30;;;;;;;-1.43;100.00;96140.48;109115;1272;23204;-79
2023/01/21 00:31:45;;;;;;;5.20;3.60;;;;;;;-1.43;100.00;96136.90;109079;1267;22524;-79
2023/01/21 00:34:16;;;;;;;6.50;3.90;;;;;;;-1.44;100.00;96137.86;108787;1270;25514;-79
2023/01/21 00:36:47;;;;;;;6.50;3.90;;;;;;;-1.46;100.00;96132.73;108699;1266;24317;-79
2023/01/21 00:39:18;;;;;;;5.10;3.40;;;;;;;-1.45;100.00;96132.80;108725;1270;22573;-79
2023/01/21 00:41:49;;;;;;;6.20;3.90;;;;;;;-1.43;100.00;96132.78;108736;1265;22603;-79
2023/01/21 00:44:23;;;;;;;6.50;3.70;;;;;;;-1.44;100.00;96130.95;108784;1272;25411;-79
2023/01/21 00:46:53;;;;;;;8.50;5.10;;;;;;;-1.44;100.00;96134.48;109078;1266;24006;-80
2023/01/21 00:49:27;;;;;;;5.70;3.60;;;;;;;-1.45;100.00;96134.55;109216;1272;22565;-79
2023/01/21 00:51:58;;;;;;;5.00;3.80;;;;;;;-1.43;100.00;96142.81;109156;1272;22531;-79
2023/01/21 00:54:31;;;;;;;5.70;3.70;;;;;;;-1.43;100.00;96150.10;109262;1272;22544;-79
2023/01/21 00:57:02;;;;;;;6.30;4.20;;;;;;;-1.42;100.00;96158.88;109236;1269;23301;-79
2023/01/21 00:59:33;;;;;;;5.60;4.00;;;;;;;-1.41;100.00;96162.36;109228;1269;24267;-79
2023/01/21 01:02:04;;;;;;;6.00;3.90;;;;;;;-1.40;100.00;96162.77;108778;1272;22570;-79
2023/01/21 01:04:34;;;;;;;5.70;3.90;;;;;;;-1.39;100.00;96162.80;108873;1271;22535;-79
2023/01/21 01:07:05;;;;;;;5.60;3.80;;;;;;;-1.37;100.00;96158.98;108832;1272;22586;-79
2023/01/21 01:09:36;;;;;;;5.80;3.80;;;;;;;-1.38;100.00;96154.54;108891;1263;22663;-79
2023/01/21 01:12:09;;;;;;;5.60;3.70;;;;;;;-1.38;100.00;96156.98;108861;1266;22549;-79
2023/01/21 01:14:40;;;;;;;5.00;3.80;;;;;;;-1.38;100.00;96151.98;108850;1272;22543;-78
2023/01/21 01:17:11;;;;;;;6.70;4.20;;;;;;;-1.39;100.00;96147.64;108838;1272;22564;-78
2023/01/21 01:19:43;;;;;;;5.40;3.70;;;;;;;-1.41;100.00;96149.45;108777;1272;24247;-78
2023/01/21 01:22:14;;;;;;;5.50;3.60;;;;;;;-1.42;100.00;96143.16;108861;1272;22536;-78
2023/01/21 01:24:47;;;;;;;5.20;2.90;;;;;;;-1.43;100.00;96128.22;108864;1272;22541;-78
2023/01/21 01:27:18;;;;;;;6.30;3.30;;;;;;;-1.42;100.00;96120.45;108853;1272;22530;-78
2023/01/21 01:29:50;;;;;;;3.90;2.70;;;;;;;-1.41;100.00;96114.43;108865;1272;22718;-78
2023/01/21 01:32:21;;;;;;;4.10;2.60;;;;;;;-1.41;100.00;96115.40;108865;1264;22551;-78
2023/01/21 01:34:52;;;;;;;4.10;2.60;;;;;;;-1.39;100.00;96123.20;108870;1272;22544;-78
2023/01/21 01:37:25;;;;;;;3.40;2.40;;;;;;;-1.39;100.00;96125.20;108842;1271;24351;-78
2023/01/21 01:39:59;;;;;;;3.70;2.20;;;;;;;-1.38;100.00;96118.76;108845;1263;22527;-78
2023/01/21 01:42:30;;;;;;;3.30;2.20;;;;;;;-1.39;100.00;96119.16;108897;1272;22525;-78
2023/01/21 01:45:04;;;;;;;3.40;2.30;;;;;;;-1.39;100.00;96115.84;108862;1270;25255;-77
2023/01/21 01:47:43;;;;;;;4.20;2.60;;;;;;;-1.40;100.00;96108.44;108833;1266;22541;-78
2023/01/21 01:50:14;;;;;;;;;;;;;;;-1.42;100.00;96115.24;108802;1272;22959;-78
2023/01/21 01:52:46;;;;;;;2.80;2.00;;;;;;;-1.42;100.00;96123.92;108802;1272;24892;-78
2023/01/21 01:55:17;;;;;;;2.70;2.00;;;;;;;-1.41;100.00;96125.23;108725;1272;22525;-78
2023/01/21 01:57:54;;;;;;;2.40;1.70;;;;;;;-1.41;100.00;96129.71;108691;1266;23182;-77
2023/01/21 02:00:26;;;;;;;2.70;2.00;;;;;;;-1.42;100.00;96131.33;108768;1272;24243;-77
2023/01/21 02:05:44;;;;;;;1.90;1.70;;;;;;;-1.40;100.00;96131.65;108698;1272;23968;-78
2023/01/21 02:08:15;;;;;;;2.10;1.60;;;;;;;-1.41;100.00;96130.52;109062;1269;22541;-78
2023/01/21 02:10:46;;;;;;;2.30;1.60;;;;;;;-1.41;100.00;96130.35;109118;1272;22546;-78
2023/01/21 02:13:18;;;;;;;2.20;1.50;;;;;;;-1.42;100.00;96130.28;109151;1272;22663;-78
2023/01/21 02:16:01;;;;;;;1.70;1.60;;;;;;;-1.42;100.00;96129.80;108774;1272;22542;-79
2023/01/21 02:18:39;;;;;;;3.30;1.80;;;;;;;-1.42;100.00;96132.41;109064;1272;25494;-78
2023/01/21 02:21:42;;;;;;;2.40;1.80;;;;;;;-1.41;100.00;96128.36;109114;1267;22527;-78
2023/01/21 02:24:40;;;;;;;1.90;1.60;;;;;;;-1.41;100.00;96125.83;109069;1272;25297;-79
2023/01/21 02:27:47;;;;;;;2.60;1.90;;;;;;;-1.41;100.00;96128.11;109043;1272;22552;-80
2023/01/21 02:30:52;;;;;;;3.30;2.20;;;;;;;-1.41;100.00;96127.76;108986;1266;22535;-79
2023/01/21 02:33:44;;;;;;;2.90;1.50;;;;;;;-1.42;100.00;96124.56;109075;1272;25144;-79
2023/01/21 02:36:50;;;;;;;3.60;2.40;;;;;;;-1.42;100.00;96122.05;109116;1272;22560;-79
2023/01/21 02:39:31;;;;;;;3.60;2.40;;;;;;;-1.43;100.00;96122.85;109067;1272;22538;-78
2023/01/21 02:42:21;;;;;;;2.70;2.20;;;;;;;-1.43;100.00;96124.17;109036;1272;22623;-78
2023/01/21 02:44:59;;;;;;;3.60;2.60;;;;;;;-1.42;100.00;96118.56;109056;1272;22580;-78
2023/01/21 02:47:37;;;;;;;4.00;2.00;;;;;;;-1.42;100.00;96115.56;109122;1253;22573;-78
2023/01/21 02:50:12;;;;;;;2.80;2.20;;;;;;;-1.42;100.00;96115.35;109129;1272;22547;-78
2023/01/21 02:52:43;;;;;;;3.50;2.10;;;;;;;-1.42;100.00;96106.09;109052;1272;22531;-78
2023/01/21 02:55:17;;;;;;;3.50;2.20;;;;;;;-1.44;100.00;96112.19;109113;1272;22918;-79
2023/01/21 02:57:52;;;;;;;4.10;2.10;;;;;;;-1.44;100.00;96106.91;109107;1272;22524;-80
2023/01/21 03:00:26;;;;;;;3.70;2.30;;;;;;;-1.45;100.00;96109.91;109125;1272;22543;-80
2023/01/21 03:03:23;;;;;;;3.60;2.40;;;;;;;-1.46;100.00;96099.06;109082;1272;22541;-80
2023/01/21 03:06:28;;;;;;;3.60;2.50;;;;;;;-1.48;100.00;96094.48;109084;1266;24951;-80
2023/01/21 03:09:05;;;;;;;3.20;2.00;;;;;;;-1.51;100.00;96098.11;109077;1272;22545;-78
2023/01/21 03:11:37;;;;;;;2.90;2.00;;;;;;;-1.53;100.00;96093.73;109117;1265;22531;-80
2023/01/21 03:17:11;;;;;;;3.10;2.40;;;;;;;-1.54;100.00;96107.34;109086;1270;25412;-80
2023/01/21 03:19:47;;;;;;;4.30;2.40;;;;;;;-1.54;100.00;96107.38;109140;1266;25357;-80
2023/01/21 03:22:22;;;;;;;4.90;2.70;;;;;;;-1.54;100.00;96108.42;109053;1261;23537;-80
2023/01/21 03:24:56;;;;;;;3.00;2.30;;;;;;;-1.54;100.00;96110.02;109091;1270;24212;-80
2023/01/21 03:27:32;;;;;;;4.40;2.60;;;;;;;-1.54;100.00;96110.02;109029;1266;46292;-80
2023/01/21 03:30:08;;;;;;;3.10;2.30;;;;;;;-1.54;100.00;96111.06;109066;1270;23116;-79
2023/01/21 03:32:41;;;;;;;4.10;2.60;;;;;;;-1.54;100.00;96118.53;109050;1269;24957;-80
2023/01/21 03:35:17;;;;;;;4.30;2.60;;;;;;;-1.55;100.00;96121.13;109083;1266;22605;-79
2023/01/21 03:37:52;;;;;;;4.10;2.40;;;;;;;-1.53;100.00;96118.01;109063;1266;23200;-80
2023/01/21 03:40:27;;;;;;;3.40;2.00;;;;;;;-1.53;100.00;96114.73;109057;1269;22528;-79
2023/01/21 03:43:00;;;;;;;2.70;2.10;;;;;;;-1.53;100.00;96120.88;109075;1273;24337;-79
2023/01/21 03:45:39;;;;;;;3.50;2.10;;;;;;;-1.53;100.00;96122.96;109016;1272;22547;-80
2023/01/21 03:48:20;;;;;;;3.00;2.20;;;;;;;-1.53;100.00;96122.12;109034;1266;22543;-80
2023/01/21 03:50:56;;;;;;;3.10;1.80;;;;;;;-1.52;100.00;96127.72;109079;1266;24027;-79
2023/01/21 03:53:27;;;;;;;3.10;2.00;;;;;;;-1.52;100.00;96124.91;109001;1272;22547;-79
2023/01/21 03:56:01;;;;;;;2.10;1.80;;;;;;;-1.52;100.00;96119.04;108997;1266;22651;-79
2023/01/21 03:58:32;;;;;;;2.70;2.00;;;;;;;-1.52;100.00;96115.96;109037;1266;22603;-79
2023/01/21 04:01:05;;;;;;;3.30;1.50;;;;;;;-1.52;100.00;96107.52;109064;1272;22528;-80
2023/01/21 04:03:36;;;;;;;1.80;1.30;;;;;;;-1.52;100.00;96099.89;109061;1269;22539;-80
2023/01/21 04:06:09;;;;;;;2.10;1.30;;;;;;;-1.53;100.00;96099.25;109071;1267;22543;-79
2023/01/21 04:08:39;;;;;;;3.50;1.50;;;;;;;-1.53;100.00;96097.05;109074;1266;25345;-79
2023/01/21 04:11:13;;;;;;;2.30;1.40;;;;;;;-1.53;100.00;96092.14;109054;1269;25349;-79
2023/01/21 04:13:45;;;;;;;2.00;1.30;;;;;;;-1.52;100.00;96093.92;109060;1272;22679;-79
2023/01/21 04:16:17;;;;;;;1.50;1.00;;;;;;;-1.51;100.00;96095.95;109043;1266;24221;-79
2023/01/21 04:18:49;;;;;;;2.50;1.20;;;;;;;-1.52;100.00;96099.08;109027;1266;22556;-79
2023/01/21 04:21:22;;;;;;;1.90;1.40;;;;;;;-1.53;100.00;96101.69;109080;1265;22524;-79
2023/01/21 04:23:56;;;;;;;2.30;1.40;;;;;;;-1.54;100.00;96106.50;109050;1266;24372;-79
2023/01/21 04:26:27;;;;;;;1.70;1.20;;;;;;;-1.54;100.00;96109.19;108993;1266;24042;-79
2023/01/21 04:28:58;;;;;;;2.10;1.40;;;;;;;-1.56;100.00;96108.70;109063;1269;22534;-79
2023/01/21 04:31:29;;;;;;;2.10;1.50;;;;;;;-1.57;100.00;96107.08;109053;1272;22553;-79
2023/01/21 04:33:59;;;;;;;1.80;1.50;;;;;;;-1.55;100.00;96110.38;109068;1272;22528;-79
2023/01/21 04:36:30;;;;;;;3.20;1.90;;;;;;;-1.56;100.00;96112.14;109169;1272;22517;-79
2023/01/21 04:39:02;;;;;;;2.70;1.70;;;;;;;-1.55;100.00;96116.58;109264;1272;24261;-80
2023/01/21 04:41:32;;;;;;;3.70;1.50;;;;;;;-1.55;100.00;96115.98;109251;1271;27531;-80
2023/01/21 04:44:03;;;;;;;2.20;1.50;;;;;;;-1.53;100.00;96116.40;109223;1272;22544;-79
2023/01/21 04:46:34;;;;;;;3.20;2.00;;;;;;;-1.53;100.00;96112.49;109230;1272;25336;-79
2023/01/21 04:49:07;;;;;;;2.80;1.80;;;;;;;-1.54;100.00;96112.55;109192;1263;150001;-79
2023/01/21 04:51:38;;;;;;;3.30;1.70;;;;;;;-1.53;100.00;96111.41;109204;1266;25615;-79
2023/01/21 04:54:10;;;;;;;2.10;1.50;;;;;;;-1.53;100.00;96115.02;109181;1272;22561;-79
2023/01/21 04:56:41;;;;;;;1.70;1.50;;;;;;;-1.52;100.00;96113.92;109252;1272;24600;-78
2023/01/21 04:59:12;;;;;;;2.60;1.80;;;;;;;-1.53;100.00;96116.20;109249;1272;22525;-78
2023/01/21 05:01:43;;;;;;;3.00;1.80;;;;;;;-1.52;100.00;96124.03;109298;1266;23928;-79
2023/01/21 05:04:14;;;;;;;1.90;1.60;;;;;;;-1.50;100.00;96122.25;109260;1272;22641;-79
2023/01/21 05:06:45;;;;;;;2.80;1.80;;;;;;;-1.48;100.00;96121.73;109241;1272;27022;-79
2023/01/21 05:09:16;;;;;;;3.00;1.80;;;;;;;-1.48;100.00;96123.92;109225;1272;25513;-79
2023/01/21 05:11:47;;;;;;;2.70;1.50;;;;;;;-1.48;100.00;96125.95;109160;1272;22517;-79
2023/01/21 05:14:17;;;;;;;1.90;1.30;;;;;;;-1.47;100.00;96127.42;109255;1272;25275;-79
2023/01/21 05:16:48;;;;;;;1.60;1.20;;;;;;;-1.44;100.00;96128.55;109253;1266;22531;-78
2023/01/21 05:19:20;;;;;;;2.20;1.60;;;;;;;-1.41;100.00;96130.56;109241;1272;22531;-79
2023/01/21 05:21:51;;;;;;;1.30;0.90;;;;;;;-1.39;100.00;96131.95;108944;1271;22524;-78
2023/01/21 05:24:22;;;;;;;2.00;1.30;;;;;;;-1.37;100.00;96132.06;108911;1272;24241;-79
2023/01/21 05:26:52;;;;;;;1.20;1.10;;;;;;;-1.35;100.00;96132.00;108891;1272;22546;-79
2023/01/21 05:29:23;;;;;;;2.10;1.40;;;;;;;-1.34;100.00;96134.54;108916;1272;22547;-79
2023/01/21 05:31:54;;;;;;;2.60;1.20;;;;;;;-1.33;100.00;96130.92;108918;1272;23170;-79
2023/01/21 05:34:25;;;;;;;2.20;1.00;;;;;;;-1.32;100.00;96127.20;108911;1272;22536;-79
2023/01/21 05:36:57;;;;;;;2.20;1.00;;;;;;;-1.33;100.00;96130.80;108867;1271;22517;-78
2023/01/21 05:39:27;;;;;;;1.00;0.80;;;;;;;-1.35;100.00;96131.59;108942;1272;22518;-79
2023/01/21 05:41:58;;;;;;;2.10;1.50;;;;;;;-1.36;100.00;96132.20;108952;1269;22573;-79
2023/01/21 05:44:29;;;;;;;1.40;1.30;;;;;;;-1.35;100.00;96134.60;108915;1272;22553;-80
2023/01/21 05:47:00;;;;;;;1.50;1.30;;;;;;;-1.34;100.00;96131.98;109228;1272;22539;-79
2023/01/21 05:49:31;;;;;;;1.20;1.10;;;;;;;-1.32;100.00;96136.92;109260;1272;22644;-79
2023/01/21 05:52:03;;;;;;;3.00;1.50;;;;;;;-1.31;100.00;96137.73;109205;1271;22524;-79
2023/01/21 05:54:35;;;;;;;1.50;1.00;;;;;;;-1.28;100.00;96142.04;109249;1264;22537;-79
2023/01/21 05:57:08;;;;;;;1.60;1.20;;;;;;;-1.27;100.00;96149.20;109251;1272;24615;-79
2023/01/21 05:59:39;;;;;;;2.70;1.90;;;;;;;-1.28;100.00;96146.48;109289;1272;22659;-78
2023/01/21 06:02:11;;;;;;;2.10;1.90;;;;;;;-1.31;100.00;96147.98;109289;1272;22567;-79
2023/01/21 06:04:44;;;;;;;3.00;2.10;;;;;;;-1.37;100.00;96150.21;109273;1272;22553;-79
2023/01/21 06:07:15;;;;;;;1.80;1.20;;;;;;;-1.39;100.00;96153.63;109244;1271;22608;-79
2023/01/21 06:09:47;;;;;;;2.00;1.30;;;;;;;-1.38;100.00;96151.42;109253;1272;22571;-79
2023/01/21 06:12:18;;;;;;;1.70;1.20;;;;;;;-1.39;100.00;96154.56;109313;1272;22565;-79
2023/01/21 06:14:49;;;;;;;2.20;1.60;;;;;;;-1.40;100.00;96162.27;109258;1272;22520;-79
2023/01/21 06:17:20;;;;;;;1.10;0.90;;;;;;;-1.39;100.00;96163.16;109271;1272;22526;-79
2023/01/21 06:19:51;;;;;;;1.50;0.90;;;;;;;-1.38;100.00;96163.79;109257;1266;22654;-79
2023/01/21 06:22:22;;;;;;;1.00;0.80;;;;;;;-1.39;100.00;96169.08;109249;1272;22516;-79
2023/01/21 06:24:54;;;;;;;0.80;0.80;;;;;;;-1.39;100.00;96165.96;109248;1272;26487;-79
2023/01/21 06:27:25;;;;;;;1.60;1.10;;;;;;;-1.39;100.00;96165.48;109226;1259;22559;-80
2023/01/21 06:29:56;;;;;;;1.30;1.10;;;;;;;-1.41;100.00;96171.42;109273;1270;22527;-79
2023/01/21 06:32:28;;;;;;;2.00;1.40;;;;;;;-1.41;100.00;96172.15;109254;1266;22521;-79
2023/01/21 06:34:59;;;;;;;1.90;0.90;;;;;;;-1.39;100.00;96172.60;109166;1272;22598;-79
2023/01/21 06:37:30;;;;;;;1.70;1.10;;;;;;;-1.40;100.00;96168.69;109268;1264;22531;-79
2023/01/21 06:40:01;;;;;;;1.80;1.00;;;;;;;-1.40;100.00;96175.52;109268;1266;22529;-79
2023/01/21 06:42:32;;;;;;;0.80;0.80;;;;;;;-1.40;100.00;96179.45;109123;1263;22523;-78
2023/01/21 06:45:03;;;;;;;1.20;0.80;;;;;;;-1.39;100.00;96179.20;109258;1263;22643;-79
2023/01/21 06:47:37;;;;;;;0.80;0.70;;;;;;;-1.40;100.00;96181.02;109260;1269;22528;-79
2023/01/21 06:50:09;;;;;;;1.50;0.80;;;;;;;-1.40;100.00;96182.92;109304;1268;22517;-79
2023/01/21 06:52:45;;;;;;;1.40;1.20;;;;;;;-1.40;100.00;96191.39;109266;1266;22520;-78
2023/01/21 06:55:16;;;;;;;2.00;1.10;;;;;;;-1.39;100.00;96197.23;109276;1266;22536;-79
2023/01/21 06:57:47;;;;;;;3.00;1.60;;;;;;;-1.39;100.00;96201.83;109313;1263;24199;-78
2023/01/21 07:00:20;;;;;;;1.20;0.80;;;;;;;-1.40;100.00;96199.60;109289;1263;22706;-78
2023/01/21 07:02:55;;;;;;;1.30;1.10;;;;;;;-1.40;100.00;96202.04;109258;1263;23260;-78
2023/01/21 07:05:26;;;;;;;1.20;1.00;;;;;;;-1.38;100.00;96203.42;109281;1266;22521;-78
2023/01/21 07:07:58;;;;;;;1.60;1.00;;;;;;;-1.38;100.00;96205.70;109239;1263;25271;-78
2023/01/21 07:10:29;;;;;;;1.30;0.90;;;;;;;-1.37;100.00;96212.70;109261;1251;22562;-78
2023/01/21 07:13:02;;;;;;;2.10;1.40;;;;;;;-1.35;100.00;96217.77;109250;1266;25470;-78
2023/01/21 07:15:34;;;;;;;6.90;4.70;;;;;;;-1.35;100.00;96222.64;109244;1264;25372;-78
2023/01/21 07:18:06;;;;;;;3.20;1.70;;;;;;;-1.35;100.00;96226.39;109274;1265;22643;-78
2023/01/21 07:20:39;;;;;;;4.10;2.60;;;;;;;-1.37;100.00;96229.61;109236;1269;24209;-78
2023/01/21 07:23:10;;;;;;;13.40;9.00;;;;;;;-1.38;100.00;96228.27;109248;1264;22519;-78
2023/01/21 07:25:42;;;;;;;3.40;2.50;;;;;;;-1.39;100.00;96233.51;109281;1266;24192;-78
2023/01/21 07:28:13;;;;;;;3.10;2.30;;;;;;;-1.36;100.00;96227.04;109285;1264;25396;-78
2023/01/21 07:30:45;;;;;;;2.00;1.40;;;;;;;-1.34;100.00;96228.27;109291;1266;23183;-78
2023/01/21 07:33:16;;;;;;;1.50;1.20;;;;;;;-1.32;100.00;96232.91;109311;1266;22536;-78
2023/01/21 07:35:50;;;;;;;2.60;1.80;;;;;;;-1.28;100.00;96234.73;109191;1272;25446;-78
2023/01/21 07:38:22;;;;;;;2.60;1.70;;;;;;;-1.25;100.00;96230.98;109247;1264;22522;-79
2023/01/21 07:40:56;;;;;;;4.00;2.60;;;;;;;-1.24;100.00;96233.08;109144;1266;22517;-79
2023/01/21 07:43:29;;;;;;;4.60;2.40;;;;;;;-1.22;100.00;96233.93;109277;1272;22643;-79
2023/01/21 07:46:04;;;;;;;3.60;2.30;;;;;;;-1.20;100.00;96236.95;109229;1267;38774;-79
2023/01/21 07:48:35;;;;;;;2.70;2.00;;;;;;;-1.20;100.00;96237.23;109244;1266;22537;-79
2023/01/21 07:51:07;;;;;;;4.50;2.90;;;;;;;-1.19;100.00;96238.95;109219;1268;22592;-81
2023/01/21 07:53:38;;;;;;;1.70;1.00;;;;;;;-1.17;100.00;96242.45;109291;1272;24680;-79
2023/01/21 07:56:11;;;;;;;1.60;1.10;;;;;;;-1.14;100.00;96245.65;109301;1263;22539;-79
2023/01/21 07:58:43;;;;;;;4.20;2.00;;;;;;;-1.16;100.00;96251.11;109381;1266;22538;-79
2023/01/21 08:01:14;;;;;;;1.90;1.70;;;;;;;-1.17;100.00;96251.84;109405;1264;22521;-79
2023/01/21 08:03:45;;;;;;;1.20;0.90;;;;;;;-1.13;100.00;96253.58;109312;1271;26437;-79
2023/01/21 08:06:17;;;;;;;2.50;1.60;;;;;;;-1.07;100.00;96252.54;109234;1271;22511;-79
2023/01/21 08:08:48;;;;;;;4.20;3.10;;;;;;;-1.05;100.00;96252.11;109386;1267;23821;-79
2023/01/21 08:11:25;;;;;;;1.70;1.20;;;;;;;-1.06;100.00;96255.40;109385;1267;22775;-80
2023/01/21 08:13:57;;;;;;;3.40;2.20;;;;;;;-1.04;100.00;96259.65;109411;1271;22550;-80
2023/01/21 08:16:29;;;;;;;4.00;2.60;;;;;;;-1.00;100.00;96265.70;109369;1271;37746;-81
2023/01/21 08:19:00;;;;;;;2.80;1.60;;;;;;;-0.98;100.00;96259.50;109333;1271;22529;-80
2023/01/21 08:21:32;;;;;;;5.00;3.40;;;;;;;-0.96;100.00;96260.52;109272;1271;25094;-81
2023/01/21 08:24:03;;;;;;;5.70;3.90;;;;;;;-0.93;100.00;96260.53;109354;1271;25313;-81
2023/01/21 08:26:34;;;;;;;13.00;8.30;;;;;;;-0.87;100.00;96264.63;109351;1267;22542;-81
2023/01/21 08:29:05;;;;;;;11.80;8.00;;;;;;;-0.85;100.00;96265.73;109355;1271;22521;-82
2023/01/21 08:31:37;;;;;;;9.30;6.10;;;;;;;-0.84;100.00;96267.09;109334;1267;22518;-82
2023/01/21 08:34:11;;;;;;;5.50;3.60;;;;;;;-0.84;100.00;96268.50;109350;1271;22521;-81
2023/01/21 08:36:42;;;;;;;1.80;1.40;;;;;;;-0.78;100.00;96272.77;109250;1271;22534;-81
2023/01/21 08:39:15;;;;;;;6.60;3.50;;;;;;;-0.75;100.00;96273.69;109303;1271;22521;-81
2023/01/21 08:41:47;;;;;;;3.00;1.40;;;;;;;-0.72;100.00;96273.30;109340;1267;22528;-81
2023/01/21 08:44:18;;;;;;;11.40;4.60;;;;;;;-0.74;100.00;96277.04;109329;1269;23187;-80
2023/01/21 08:46:50;;;;;;;23.20;7.90;;;;;;;-0.76;100.00;96284.71;109304;1267;22524;-81
2023/01/21 08:49:22;;;;;;;16.40;6.00;;;;;;;-0.75;100.00;96293.06;109339;1271;22561;-80
2023/01/21 08:51:53;;;;;;;17.00;6.80;;;;;;;-0.67;100.00;96297.33;109336;1271;22612;-81
2023/01/21 08:54:26;;;;;;;13.00;5.00;;;;;;;-0.61;100.00;96300.14;109168;1267;22535;-80
2023/01/21 08:56:59;;;;;;;21.40;7.00;;;;;;;-0.58;100.00;96302.52;109208;1271;26433;-81
2023/01/21 08:59:31;;;;;;;27.00;9.60;;;;;;;-0.57;100.00;96302.78;109348;1271;22560;-80
2023/01/21 09:02:02;;;;;;;10.90;4.60;;;;;;;-0.54;100.00;96304.98;109261;1269;25286;-81
2023/01/21 09:04:34;;;;;;;21.30;8.10;;;;;;;-0.53;100.00;96309.90;109212;1258;22527;-80
2023/01/21 09:07:06;;;;;;;9.50;4.00;;;;;;;-0.53;100.00;96314.02;109188;1263;23044;-79
2023/01/21 09:09:37;;;;;;;6.40;3.20;;;;;;;-0.56;100.00;96318.23;109266;1271;24291;-78
2023/01/21 09:12:09;;;;;;;3.80;2.50;;;;;;;-0.60;100.00;96318.20;109206;1271;22547;-79
2023/01/21 09:14:41;;;;;;;4.60;2.70;;;;;;;-0.60;100.00;96317.03;109152;1269;23005;-79
2023/01/21 09:17:12;;;;;;;14.80;7.20;;;;;;;-0.57;100.00;96320.34;109326;1268;24215;-79
2023/01/21 09:19:43;;;;;;;20.10;8.20;;;;;;;-0.55;100.00;96320.45;109305;1267;23473;-79
2023/01/21 09:22:15;;;;;;;23.40;8.90;;;;;;;-0.58;100.00;96318.86;109332;1271;23022;-78
2023/01/21 09:24:46;;;;;;;12.20;4.60;;;;;;;-0.57;100.00;96319.25;109289;1271;22524;-78
2023/01/21 09:27:17;;;;;;;11.20;5.00;;;;;;;-0.55;100.00;96318.45;109282;1271;22539;-78
2023/01/21 09:29:48;;;;;;;19.40;8.30;;;;;;;-0.51;100.00;96321.13;109214;1266;24235;-77
2023/01/21 09:32:19;;;;;;;7.70;3.40;;;;;;;-0.45;100.00;96321.58;109307;1267;24400;-77
2023/01/21 09:34:51;;;;;;;10.20;5.40;;;;;;;-0.43;100.00;96329.38;109393;1267;22567;-79
2023/01/21 09:37:22;;;;;;;4.10;2.50;;;;;;;-0.39;100.00;96327.52;109338;1271;22617;-78
2023/01/21 09:39:53;;;;;;;10.40;5.40;;;;;;;-0.33;100.00;96325.23;109333;1271;22657;-79
2023/01/21 09:42:30;;;;;;;10.90;5.00;;;;;;;-0.26;100.00;96328.02;109396;1264;22572;-79
2023/01/21 09:45:06;;;;;;;5.30;2.90;;;;;;;-0.22;100.00;96328.16;109287;1265;24283;-79
2023/01/21 09:47:42;;;;;;;9.50;5.20;;;;;;;-0.22;100.00;96332.73;109312;1266;22550;-79
2023/01/21 09:50:17;;;;;;;6.90;3.80;;;;;;;-0.17;100.00;96337.05;109319;1271;24201;-79
2023/01/21 09:52:51;;;;;;;13.60;6.50;;;;;;;-0.07;100.00;96335.36;109328;1271;22537;-82
2023/01/21 09:55:27;;;;;;;7.50;3.30;;;;;;;0.04;100.00;96331.45;109316;1271;27776;-81
2023/01/21 09:58:19;;;;;;;13.70;6.40;;;;;;;0.13;100.00;96333.46;109345;1267;22574;-81
2023/01/21 10:00:57;;;;;;;7.40;3.80;;;;;;;0.20;100.00;96330.33;109341;1269;23990;-80
2023/01/21 10:03:43;;;;;;;3.80;2.60;;;;;;;0.21;100.00;96333.21;109350;1271;22559;-80
2023/01/21 10:06:30;;;;;;;3.10;2.10;;;;;;;0.27;100.00;96335.38;109345;1269;26081;-79
2023/01/21 10:09:36;;;;;;;3.00;2.00;;;;;;;0.49;100.00;96333.93;109335;1271;25414;-81
2023/01/21 10:12:22;;;;;;;5.10;3.20;;;;;;;0.72;100.00;96337.08;109379;1268;22550;-81
2023/01/21 10:15:07;;;;;;;5.60;3.30;;;;;;;0.68;99.60;96335.87;109327;1271;22765;-80
2023/01/21 10:17:50;;;;;;;3.20;2.00;;;;;;;0.59;98.86;96338.46;109171;1271;22524;-81
2023/01/21 10:20:28;;;;;;;1.90;1.30;;;;;;;0.54;98.58;96340.35;109246;1269;22529;-81
2023/01/21 10:23:06;;;;;;;1.80;1.30;;;;;;;0.58;98.72;96342.55;109298;1269;25369;-81
2023/01/21 10:25:41;;;;;;;2.50;2.00;;;;;;;0.67;98.85;96338.65;109222;1271;22526;-79
2023/01/21 10:28:19;;;;;;;3.00;2.40;;;;;;;0.66;98.54;96333.66;109191;1266;24221;-81
2023/01/21 10:30:53;;;;;;;3.80;2.50;;;;;;;0.60;98.20;96336.00;109266;1271;22552;-81
2023/01/21 10:33:28;;;;;;;6.20;3.70;;;;;;;0.56;98.18;96343.46;109332;1271;22534;-80
2023/01/21 10:36:21;;;;;;;4.20;2.70;;;;;;;0.58;98.31;96345.48;108682;1266;27481;-80
2023/01/21 10:39:01;;;;;;;3.80;2.50;;;;;;;0.56;98.18;96348.05;109168;1271;22581;-80
2023/01/21 10:41:51;;;;;;;5.00;2.70;;;;;;;0.53;98.06;96351.55;109179;1271;22755;-80
2023/01/21 10:44:29;;;;;;;6.50;4.30;;;;;;;0.49;97.64;96349.05;109281;1272;22600;-79
2023/01/21 10:47:09;;;;;;;7.00;4.20;;;;;;;0.46;97.71;96345.48;109133;1271;22590;-79
2023/01/21 10:49:53;;;;;;;5.40;3.40;;;;;;;0.37;97.39;96346.89;110715;1271;22238;-81
2023/01/21 10:52:32;;;;;;;5.30;3.40;;;;;;;0.38;97.77;96346.39;109423;1265;22560;-81
2023/01/21 10:55:15;;;;;;;5.60;3.50;;;;;;;0.40;97.87;96353.14;109140;1269;22560;-81
2023/01/21 10:57:57;;;;;;;8.90;5.20;;;;;;;0.39;97.77;96352.94;109246;1265;22536;-80
2023/01/21 11:00:33;;;;;;;6.70;4.30;;;;;;;0.38;97.71;96350.72;109172;1269;22556;-81
2023/01/21 11:03:13;;;;;;;6.70;3.90;;;;;;;0.40;97.73;96351.56;109221;1272;25415;-80
2023/01/21 11:05:45;;;;;;;6.80;3.60;;;;;;;0.39;97.45;96348.45;109147;1266;22534;-80
2023/01/21 11:08:21;;;;;;;9.40;5.10;;;;;;;0.43;97.45;96344.92;109273;1271;22536;-80
2023/01/21 11:10:55;;;;;;;6.30;4.40;;;;;;;0.56;98.10;96348.44;109235;1269;23466;-80
2023/01/21 11:13:26;;;;;;;6.90;4.40;;;;;;;0.69;98.24;96352.60;109226;1272;22590;-80
2023/01/21 11:15:59;;;;;;;7.60;4.50;;;;;;;0.87;98.42;96356.64;109119;1262;23064;-80
2023/01/21 11:18:35;;;;;;;5.60;3.80;;;;;;;1.02;98.33;96359.59;109282;1272;24200;-80
2023/01/21 11:21:17;;;;;;;5.40;3.90;;;;;;;1.05;97.63;96359.44;109104;1271;22568;-80
2023/01/21 11:23:59;;;;;;;4.80;3.70;;;;;;;1.06;97.08;96359.46;109129;1272;23076;-80
2023/01/21 11:26:32;;;;;;;5.60;3.70;;;;;;;1.05;96.83;96351.48;109099;1265;22579;-80
2023/01/21 11:29:16;;;;;;;7.10;4.60;;;;;;;0.99;96.13;96351.70;109059;1272;22523;-79
2023/01/21 11:31:50;;;;;;;5.80;4.00;;;;;;;1.01;96.34;96353.52;109068;1269;24257;-80
2023/01/21 11:34:23;;;;;;;7.30;4.60;;;;;;;0.94;95.94;96362.56;109041;1272;22634;-79
2023/01/21 11:37:01;;;;;;;7.60;4.50;;;;;;;1.01;96.35;96369.68;109118;1269;22536;-80
2023/01/21 11:39:35;;;;;;;5.50;4.00;;;;;;;1.18;96.57;96366.98;109172;1272;22518;-80
2023/01/21 11:42:14;;;;;;;7.40;4.70;;;;;;;1.21;95.83;96363.32;109096;1272;22531;-80
2023/01/21 11:44:54;;;;;;;10.10;5.90;;;;;;;1.24;95.46;96363.39;109062;1272;22549;-80
2023/01/21 11:47:35;;;;;;;7.40;5.00;;;;;;;1.36;95.36;96359.23;109054;1272;22528;-79
2023/01/21 11:50:15;;;;;;;8.60;4.60;;;;;;;1.31;94.41;96360.99;109103;1272;22534;-80
2023/01/21 11:52:46;;;;;;;8.20;4.80;;;;;;;1.16;94.07;96356.89;109127;1266;24240;-79
2023/01/21 11:55:24;;;;;;;9.40;4.50;;;;;;;1.10;94.20;96355.33;108731;1268;22521;-79
2023/01/21 11:57:57;;;;;;;7.70;4.50;;;;;;;1.03;93.76;96349.86;108893;1272;22524;-79